sensor_id;sensor_type;location;lat;lon;timestamp;pressure;altitude;pressure_sealevel;temperature;humidity
50682;BME280;36779;52.168;20.878;2023-08-08T00:02:21;99587.04;;;15.00;60.15
50682;BME280;36779;52.168;20.878;2023-08-08T00:04:49;99587.60;;;14.99;60.15
50682;BME280;36779;52.168;20.878;2023-08-08T00:07:17;99590.91;;;14.95;60.19
50682;BME280;36779;52.168;20.878;2023-08-08T00:09:45;99595.06;;;14.92;60.46
50682;BME280;36779;52.168;20.878;2023-08-08T00:12:16;99599.89;;;14.88;60.37
50682;BME280;36779;52.168;20.878;2023-08-08T00:14:43;99597.84;;;14.82;60.30
50682;BME280;36779;52.168;20.878;2023-08-08T00:17:11;99605.27;;;14.78;60.37
50682;BME280;36779;52.168;20.878;2023-08-08T00:19:39;99610.36;;;14.73;60.50
50682;BME280;36779;52.168;20.878;2023-08-08T00:22:06;99614.20;;;14.72;60.61
50682;BME280;36779;52.168;20.878;2023-08-08T00:24:34;99612.95;;;14.69;60.21
50682;BME280;36779;52.168;20.878;2023-08-08T00:27:10;99616.14;;;14.66;60.37
50682;BME280;36779;52.168;20.878;2023-08-08T00:29:37;99619.35;;;14.65;60.33
50682;BME280;36779;52.168;20.878;2023-08-08T00:32:06;99620.30;;;14.65;60.49
50682;BME280;36779;52.168;20.878;2023-08-08T00:34:33;99619.27;;;14.63;60.41
50682;BME280;36779;52.168;20.878;2023-08-08T00:37:01;99621.76;;;14.63;60.63
50682;BME280;36779;52.168;20.878;2023-08-08T00:39:30;99628.39;;;14.63;60.74
50682;BME280;36779;52.168;20.878;2023-08-08T00:41:58;99626.86;;;14.61;60.41
50682;BME280;36779;52.168;20.878;2023-08-08T00:44:26;99630.13;;;14.58;60.77
50682;BME280;36779;52.168;20.878;2023-08-08T00:46:54;99637.05;;;14.56;60.81
50682;BME280;36779;52.168;20.878;2023-08-08T00:49:22;99636.23;;;14.53;60.54
50682;BME280;36779;52.168;20.878;2023-08-08T00:51:50;99632.48;;;14.50;60.75
50682;BME280;36779;52.168;20.878;2023-08-08T00:54:18;99637.94;;;14.46;60.78
50682;BME280;36779;52.168;20.878;2023-08-08T00:56:48;99640.81;;;14.45;60.79
50682;BME280;36779;52.168;20.878;2023-08-08T00:59:16;99641.85;;;14.44;60.63
50682;BME280;36779;52.168;20.878;2023-08-08T01:01:46;99644.86;;;14.43;60.74
50682;BME280;36779;52.168;20.878;2023-08-08T01:04:16;99649.11;;;14.41;60.77
50682;BME280;36779;52.168;20.878;2023-08-08T01:06:47;99654.73;;;14.40;60.57
50682;BME280;36779;52.168;20.878;2023-08-08T01:09:21;99657.11;;;14.40;60.71
50682;BME280;36779;52.168;20.878;2023-08-08T01:11:50;99660.58;;;14.39;60.87
50682;BME280;36779;52.168;20.878;2023-08-08T01:14:20;99661.16;;;14.37;60.75
50682;BME280;36779;52.168;20.878;2023-08-08T01:16:52;99661.19;;;14.34;60.72
50682;BME280;36779;52.168;20.878;2023-08-08T01:19:27;99661.52;;;14.31;61.00
50682;BME280;36779;52.168;20.878;2023-08-08T01:21:56;99664.67;;;14.27;60.74
50682;BME280;36779;52.168;20.878;2023-08-08T01:24:27;99665.78;;;14.21;60.77
50682;BME280;36779;52.168;20.878;2023-08-08T01:26:56;99670.98;;;14.16;60.92
50682;BME280;36779;52.168;20.878;2023-08-08T01:29:24;99668.94;;;14.11;60.99
50682;BME280;36779;52.168;20.878;2023-08-08T01:31:52;99677.64;;;14.07;60.87
50682;BME280;36779;52.168;20.878;2023-08-08T01:34:20;99680.92;;;14.04;60.78
50682;BME280;36779;52.168;20.878;2023-08-08T01:36:49;99682.23;;;14.02;60.74
50682;BME280;36779;52.168;20.878;2023-08-08T01:39:20;99685.98;;;14.02;60.81
50682;BME280;36779;52.168;20.878;2023-08-08T01:41:50;99686.80;;;14.01;60.78
50682;BME280;36779;52.168;20.878;2023-08-08T01:44:18;99690.96;;;14.01;61.09
50682;BME280;36779;52.168;20.878;2023-08-08T01:46:46;99693.40;;;14.03;60.78
50682;BME280;36779;52.168;20.878;2023-08-08T01:49:17;99694.81;;;14.03;61.01
50682;BME280;36779;52.168;20.878;2023-08-08T01:51:44;99698.67;;;14.02;60.97
50682;BME280;36779;52.168;20.878;2023-08-08T01:54:13;99701.55;;;13.99;61.18
50682;BME280;36779;52.168;20.878;2023-08-08T01:56:42;99702.70;;;13.97;60.90
50682;BME280;36779;52.168;20.878;2023-08-08T01:59:10;99706.11;;;13.95;61.02
50682;BME280;36779;52.168;20.878;2023-08-08T02:01:41;99706.17;;;13.90;61.13
50682;BME280;36779;52.168;20.878;2023-08-08T02:04:09;99710.37;;;13.86;61.04
50682;BME280;36779;52.168;20.878;2023-08-08T02:06:37;99713.56;;;13.82;61.15
50682;BME280;36779;52.168;20.878;2023-08-08T02:09:05;99717.80;;;13.80;60.84
50682;BME280;36779;52.168;20.878;2023-08-08T02:11:36;99720.59;;;13.78;61.15
50682;BME280;36779;52.168;20.878;2023-08-08T02:14:08;99720.14;;;13.77;61.10
50682;BME280;36779;52.168;20.878;2023-08-08T02:16:36;99722.00;;;13.77;61.01
50682;BME280;36779;52.168;20.878;2023-08-08T02:19:04;99727.49;;;13.76;61.08
50682;BME280;36779;52.168;20.878;2023-08-08T02:21:32;99731.98;;;13.75;61.14
50682;BME280;36779;52.168;20.878;2023-08-08T02:24:01;99732.45;;;13.75;61.20
50682;BME280;36779;52.168;20.878;2023-08-08T02:26:29;99736.36;;;13.75;61.05
50682;BME280;36779;52.168;20.878;2023-08-08T02:28:56;99742.83;;;13.73;61.10
50682;BME280;36779;52.168;20.878;2023-08-08T02:31:24;99746.44;;;13.71;61.30
50682;BME280;36779;52.168;20.878;2023-08-08T02:33:52;99750.83;;;13.69;61.23
50682;BME280;36779;52.168;20.878;2023-08-08T02:36:21;99750.70;;;13.66;61.27
50682;BME280;36779;52.168;20.878;2023-08-08T02:38:51;99757.23;;;13.62;61.34
50682;BME280;36779;52.168;20.878;2023-08-08T02:41:20;99754.20;;;13.58;61.23
50682;BME280;36779;52.168;20.878;2023-08-08T02:43:49;99754.69;;;13.53;61.17
50682;BME280;36779;52.168;20.878;2023-08-08T02:46:17;99756.89;;;13.49;61.16
50682;BME280;36779;52.168;20.878;2023-08-08T02:48:44;99755.83;;;13.44;61.31
50682;BME280;36779;52.168;20.878;2023-08-08T02:51:12;99756.17;;;13.38;61.30
50682;BME280;36779;52.168;20.878;2023-08-08T02:53:40;99760.41;;;13.33;61.43
50682;BME280;36779;52.168;20.878;2023-08-08T02:56:08;99761.58;;;13.30;61.20
50682;BME280;36779;52.168;20.878;2023-08-08T02:58:39;99765.56;;;13.28;61.40
50682;BME280;36779;52.168;20.878;2023-08-08T03:01:07;99766.73;;;13.26;61.13
50682;BME280;36779;52.168;20.878;2023-08-08T03:03:37;99773.70;;;13.24;61.20
50682;BME280;36779;52.168;20.878;2023-08-08T03:06:05;99773.63;;;13.23;61.35
50682;BME280;36779;52.168;20.878;2023-08-08T03:08:32;99776.23;;;13.22;61.21
50682;BME280;36779;52.168;20.878;2023-08-08T03:11:00;99778.70;;;13.21;61.23
50682;BME280;36779;52.168;20.878;2023-08-08T03:13:29;99782.61;;;13.21;61.44
50682;BME280;36779;52.168;20.878;2023-08-08T03:15:57;99788.48;;;13.20;61.34
50682;BME280;36779;52.168;20.878;2023-08-08T03:18:25;99794.77;;;13.17;61.32
50682;BME280;36779;52.168;20.878;2023-08-08T03:20:53;99790.70;;;13.14;61.51
50682;BME280;36779;52.168;20.878;2023-08-08T03:23:22;99796.48;;;13.10;61.33
50682;BME280;36779;52.168;20.878;2023-08-08T03:25:51;99795.86;;;13.07;61.40
50682;BME280;36779;52.168;20.878;2023-08-08T03:28:19;99802.05;;;13.03;61.50
50682;BME280;36779;52.168;20.878;2023-08-08T03:30:47;99799.17;;;12.99;61.43
50682;BME280;36779;52.168;20.878;2023-08-08T03:33:17;99803.69;;;12.97;61.69
50682;BME280;36779;52.168;20.878;2023-08-08T03:35:45;99811.12;;;12.94;61.55
50682;BME280;36779;52.168;20.878;2023-08-08T03:38:16;99815.42;;;12.93;61.60
50682;BME280;36779;52.168;20.878;2023-08-08T03:40:45;99815.94;;;12.91;61.45
50682;BME280;36779;52.168;20.878;2023-08-08T03:43:12;99818.33;;;12.91;61.51
50682;BME280;36779;52.168;20.878;2023-08-08T03:45:40;99819.44;;;12.91;61.63
50682;BME280;36779;52.168;20.878;2023-08-08T03:48:08;99826.22;;;12.92;61.58
50682;BME280;36779;52.168;20.878;2023-08-08T03:50:36;99824.20;;;12.94;61.43
50682;BME280;36779;52.168;20.878;2023-08-08T03:53:04;99829.61;;;12.96;61.75
50682;BME280;36779;52.168;20.878;2023-08-08T03:55:32;99837.48;;;12.98;61.66
50682;BME280;36779;52.168;20.878;2023-08-08T03:58:00;99841.73;;;12.99;61.53
50682;BME280;36779;52.168;20.878;2023-08-08T04:00:28;99848.41;;;13.03;61.80
50682;BME280;36779;52.168;20.878;2023-08-08T04:02:56;99849.14;;;13.07;61.65
50682;BME280;36779;52.168;20.878;2023-08-08T04:05:24;99850.77;;;13.13;61.91
50682;BME280;36779;52.168;20.878;2023-08-08T04:07:52;99854.01;;;13.17;61.79
50682;BME280;36779;52.168;20.878;2023-08-08T04:10:20;99855.02;;;13.20;61.79
50682;BME280;36779;52.168;20.878;2023-08-08T04:12:48;99859.33;;;13.23;61.65
50682;BME280;36779;52.168;20.878;2023-08-08T04:15:16;99865.81;;;13.25;61.76
50682;BME280;36779;52.168;20.878;2023-08-08T04:17:44;99872.63;;;13.28;61.79
50682;BME280;36779;52.168;20.878;2023-08-08T04:20:12;99871.43;;;13.32;61.95
50682;BME280;36779;52.168;20.878;2023-08-08T04:22:41;99872.36;;;13.38;62.07
50682;BME280;36779;52.168;20.878;2023-08-08T04:25:09;99873.54;;;13.58;62.26
50682;BME280;36779;52.168;20.878;2023-08-08T04:27:37;99879.58;;;14.18;63.19
50682;BME280;36779;52.168;20.878;2023-08-08T04:30:06;99884.14;;;15.03;63.79
50682;BME280;36779;52.168;20.878;2023-08-08T04:32:34;99880.08;;;15.82;64.00
50682;BME280;36779;52.168;20.878;2023-08-08T04:35:02;99878.85;;;16.52;63.75
50682;BME280;36779;52.168;20.878;2023-08-08T04:37:30;99881.77;;;17.13;63.55
50682;BME280;36779;52.168;20.878;2023-08-08T04:39:58;99882.75;;;17.47;62.99
50682;BME280;36779;52.168;20.878;2023-08-08T04:42:26;99887.74;;;17.43;62.05
50682;BME280;36779;52.168;20.878;2023-08-08T04:44:54;99892.12;;;17.24;61.24
50682;BME280;36779;52.168;20.878;2023-08-08T04:47:21;99896.02;;;17.00;61.01
50682;BME280;36779;52.168;20.878;2023-08-08T04:49:50;99900.00;;;17.00;61.15
50682;BME280;36779;52.168;20.878;2023-08-08T04:52:18;99900.91;;;17.09;61.14
50682;BME280;36779;52.168;20.878;2023-08-08T04:54:46;99904.74;;;17.26;61.30
50682;BME280;36779;52.168;20.878;2023-08-08T04:57:13;99906.76;;;17.33;60.94
50682;BME280;36779;52.168;20.878;2023-08-08T04:59:41;99907.52;;;17.12;60.25
50682;BME280;36779;52.168;20.878;2023-08-08T05:02:10;99911.80;;;16.76;60.00
50682;BME280;36779;52.168;20.878;2023-08-08T05:04:38;99917.20;;;16.45;59.89
50682;BME280;36779;52.168;20.878;2023-08-08T05:07:06;99914.11;;;16.22;59.98
50682;BME280;36779;52.168;20.878;2023-08-08T05:09:33;99914.84;;;16.03;60.00
50682;BME280;36779;52.168;20.878;2023-08-08T05:12:01;99917.55;;;15.84;60.27
50682;BME280;36779;52.168;20.878;2023-08-08T05:14:31;99923.51;;;15.70;60.26
50682;BME280;36779;52.168;20.878;2023-08-08T05:16:59;99923.98;;;15.57;60.17
50682;BME280;36779;52.168;20.878;2023-08-08T05:19:27;99922.27;;;15.48;60.27
50682;BME280;36779;52.168;20.878;2023-08-08T05:21:54;99924.42;;;15.43;60.38
50682;BME280;36779;52.168;20.878;2023-08-08T05:24:22;99929.28;;;15.37;60.44
50682;BME280;36779;52.168;20.878;2023-08-08T05:26:50;99933.41;;;15.34;60.69
50682;BME280;36779;52.168;20.878;2023-08-08T05:29:17;99931.63;;;15.36;60.57
50682;BME280;36779;52.168;20.878;2023-08-08T05:31:46;99938.25;;;15.37;60.63
50682;BME280;36779;52.168;20.878;2023-08-08T05:34:13;99933.34;;;15.41;60.75
50682;BME280;36779;52.168;20.878;2023-08-08T05:36:41;99935.58;;;15.45;60.63
50682;BME280;36779;52.168;20.878;2023-08-08T05:39:09;99938.06;;;15.52;60.86
50682;BME280;36779;52.168;20.878;2023-08-08T05:41:37;99940.67;;;15.59;60.77
50682;BME280;36779;52.168;20.878;2023-08-08T05:44:11;99944.74;;;15.65;60.73
50682;BME280;36779;52.168;20.878;2023-08-08T05:46:39;99948.36;;;15.71;60.53
50682;BME280;36779;52.168;20.878;2023-08-08T05:49:07;99949.85;;;15.73;60.72
50682;BME280;36779;52.168;20.878;2023-08-08T05:51:35;99951.34;;;15.74;60.67
50682;BME280;36779;52.168;20.878;2023-08-08T05:54:03;99949.89;;;15.76;60.77
50682;BME280;36779;52.168;20.878;2023-08-08T05:56:35;99955.60;;;15.78;60.65
50682;BME280;36779;52.168;20.878;2023-08-08T05:59:10;99961.71;;;15.83;60.79
50682;BME280;36779;52.168;20.878;2023-08-08T06:01:37;99965.86;;;15.86;60.57
50682;BME280;36779;52.168;20.878;2023-08-08T06:04:05;99964.36;;;15.83;60.43
50682;BME280;36779;52.168;20.878;2023-08-08T06:06:33;99965.02;;;15.81;60.59
50682;BME280;36779;52.168;20.878;2023-08-08T06:09:04;99967.91;;;15.86;60.59
50682;BME280;36779;52.168;20.878;2023-08-08T06:11:32;99967.60;;;15.87;60.39
50682;BME280;36779;52.168;20.878;2023-08-08T06:14:10;99971.38;;;15.89;60.47
50682;BME280;36779;52.168;20.878;2023-08-08T06:16:38;99976.15;;;15.92;60.63
50682;BME280;36779;52.168;20.878;2023-08-08T06:19:06;99979.50;;;15.94;60.61
50682;BME280;36779;52.168;20.878;2023-08-08T06:21:36;99980.86;;;15.96;60.46
50682;BME280;36779;52.168;20.878;2023-08-08T06:24:04;99984.67;;;15.97;60.40
50682;BME280;36779;52.168;20.878;2023-08-08T06:26:32;99990.90;;;15.96;60.39
50682;BME280;36779;52.168;20.878;2023-08-08T06:29:03;99988.72;;;15.92;60.38
50682;BME280;36779;52.168;20.878;2023-08-08T06:31:30;99986.73;;;15.91;60.42
50682;BME280;36779;52.168;20.878;2023-08-08T06:33:59;99988.30;;;15.94;60.38
50682;BME280;36779;52.168;20.878;2023-08-08T06:36:27;99989.17;;;15.99;60.34
50682;BME280;36779;52.168;20.878;2023-08-08T06:38:54;99993.17;;;16.04;60.46
50682;BME280;36779;52.168;20.878;2023-08-08T06:41:22;99995.92;;;16.07;60.44
50682;BME280;36779;52.168;20.878;2023-08-08T06:43:50;100001.58;;;16.11;60.31
50682;BME280;36779;52.168;20.878;2023-08-08T06:46:18;99996.20;;;16.19;60.44
50682;BME280;36779;52.168;20.878;2023-08-08T06:48:47;99999.77;;;16.30;60.48
50682;BME280;36779;52.168;20.878;2023-08-08T06:51:18;99995.59;;;16.42;60.39
50682;BME280;36779;52.168;20.878;2023-08-08T06:53:48;99994.12;;;16.53;60.50
50682;BME280;36779;52.168;20.878;2023-08-08T06:56:16;99999.67;;;16.67;60.38
50682;BME280;36779;52.168;20.878;2023-08-08T06:58:44;99999.24;;;16.77;60.31
50682;BME280;36779;52.168;20.878;2023-08-08T07:01:12;100002.51;;;16.86;60.15
50682;BME280;36779;52.168;20.878;2023-08-08T07:03:40;99999.88;;;16.89;60.19
50682;BME280;36779;52.168;20.878;2023-08-08T07:06:09;99999.20;;;16.92;60.01
50682;BME280;36779;52.168;20.878;2023-08-08T07:08:36;99997.10;;;17.00;60.01
50682;BME280;36779;52.168;20.878;2023-08-08T07:11:06;99999.40;;;17.14;60.13
50682;BME280;36779;52.168;20.878;2023-08-08T07:13:34;100000.27;;;17.33;60.19
50682;BME280;36779;52.168;20.878;2023-08-08T07:16:02;99998.96;;;17.43;59.92
50682;BME280;36779;52.168;20.878;2023-08-08T07:18:30;99998.89;;;17.48;59.93
50682;BME280;36779;52.168;20.878;2023-08-08T07:20:58;99997.76;;;17.51;59.78
50682;BME280;36779;52.168;20.878;2023-08-08T07:23:26;99997.31;;;17.60;59.71
50682;BME280;36779;52.168;20.878;2023-08-08T07:25:54;100000.11;;;17.71;59.66
50682;BME280;36779;52.168;20.878;2023-08-08T07:28:21;100002.57;;;17.76;59.52
50682;BME280;36779;52.168;20.878;2023-08-08T07:30:49;100004.98;;;17.85;59.57
50682;BME280;36779;52.168;20.878;2023-08-08T07:33:17;99996.23;;;17.91;59.32
50682;BME280;36779;52.168;20.878;2023-08-08T07:35:45;99997.86;;;17.93;59.42
50682;BME280;36779;52.168;20.878;2023-08-08T07:38:13;99998.48;;;18.02;59.43
50682;BME280;36779;52.168;20.878;2023-08-08T07:40:41;99998.59;;;18.10;59.29
50682;BME280;36779;52.168;20.878;2023-08-08T07:43:13;99999.65;;;18.13;59.28
50682;BME280;36779;52.168;20.878;2023-08-08T07:45:41;99997.39;;;18.15;59.06
50682;BME280;36779;52.168;20.878;2023-08-08T07:48:09;100000.44;;;18.18;59.09
50682;BME280;36779;52.168;20.878;2023-08-08T07:50:37;99999.06;;;18.26;59.21
50682;BME280;36779;52.168;20.878;2023-08-08T07:53:05;99999.45;;;18.43;59.11
50682;BME280;36779;52.168;20.878;2023-08-08T07:55:33;100001.62;;;18.55;58.98
50682;BME280;36779;52.168;20.878;2023-08-08T07:58:01;100005.86;;;18.62;58.95
50682;BME280;36779;52.168;20.878;2023-08-08T08:00:29;100006.61;;;18.70;58.83
50682;BME280;36779;52.168;20.878;2023-08-08T08:02:57;100006.33;;;18.73;58.72
50682;BME280;36779;52.168;20.878;2023-08-08T08:05:26;100003.17;;;18.74;58.58
50682;BME280;36779;52.168;20.878;2023-08-08T08:07:54;100001.73;;;18.73;58.33
50682;BME280;36779;52.168;20.878;2023-08-08T08:10:22;99995.65;;;18.73;58.26
50682;BME280;36779;52.168;20.878;2023-08-08T08:12:50;100003.26;;;18.79;58.33
50682;BME280;36779;52.168;20.878;2023-08-08T08:15:25;100008.49;;;18.81;58.23
50682;BME280;36779;52.168;20.878;2023-08-08T08:17:52;100007.45;;;18.75;57.97
50682;BME280;36779;52.168;20.878;2023-08-08T08:20:20;100004.57;;;18.70;57.85
50682;BME280;36779;52.168;20.878;2023-08-08T08:22:49;100007.19;;;18.71;58.03
50682;BME280;36779;52.168;20.878;2023-08-08T08:25:17;100006.45;;;18.83;58.29
50682;BME280;36779;52.168;20.878;2023-08-08T08:27:45;100009.00;;;18.96;58.33
50682;BME280;36779;52.168;20.878;2023-08-08T08:30:13;100009.52;;;19.07;58.12
50682;BME280;36779;52.168;20.878;2023-08-08T08:32:44;100011.37;;;19.13;58.09
50682;BME280;36779;52.168;20.878;2023-08-08T08:35:12;100012.22;;;19.14;57.85
50682;BME280;36779;52.168;20.878;2023-08-08T08:37:40;100008.91;;;19.14;57.88
50682;BME280;36779;52.168;20.878;2023-08-08T08:40:10;100011.27;;;19.21;57.88
50682;BME280;36779;52.168;20.878;2023-08-08T08:42:38;100010.69;;;19.31;57.94
50682;BME280;36779;52.168;20.878;2023-08-08T08:45:07;100010.60;;;19.34;57.60
50682;BME280;36779;52.168;20.878;2023-08-08T08:47:36;100009.69;;;19.34;57.72
50682;BME280;36779;52.168;20.878;2023-08-08T08:50:06;100008.30;;;19.37;57.57
50682;BME280;36779;52.168;20.878;2023-08-08T08:52:37;100011.95;;;19.42;57.61
50682;BME280;36779;52.168;20.878;2023-08-08T08:55:06;100011.70;;;19.50;57.42
50682;BME280;36779;52.168;20.878;2023-08-08T08:57:34;100011.80;;;19.57;57.35
50682;BME280;36779;52.168;20.878;2023-08-08T09:00:04;100010.11;;;19.62;57.33
50682;BME280;36779;52.168;20.878;2023-08-08T09:02:33;100013.08;;;19.58;57.02
50682;BME280;36779;52.168;20.878;2023-08-08T09:05:01;100015.50;;;19.49;56.89
50682;BME280;36779;52.168;20.878;2023-08-08T09:07:29;100018.03;;;19.38;56.75
50682;BME280;36779;52.168;20.878;2023-08-08T09:09:59;100016.14;;;19.41;56.98
50682;BME280;36779;52.168;20.878;2023-08-08T09:12:29;100022.77;;;19.44;56.78
50682;BME280;36779;52.168;20.878;2023-08-08T09:14:58;100025.05;;;19.41;56.75
50682;BME280;36779;52.168;20.878;2023-08-08T09:17:26;100022.27;;;19.40;56.87
50682;BME280;36779;52.168;20.878;2023-08-08T09:20:13;100028.33;;;19.44;56.63
50682;BME280;36779;52.168;20.878;2023-08-08T09:22:41;100028.96;;;19.35;56.54
50682;BME280;36779;52.168;20.878;2023-08-08T09:25:09;100028.95;;;19.33;56.55
50682;BME280;36779;52.168;20.878;2023-08-08T09:27:37;100028.90;;;19.27;56.44
50682;BME280;36779;52.168;20.878;2023-08-08T09:30:07;100026.14;;;19.41;56.83
50682;BME280;36779;52.168;20.878;2023-08-08T09:32:36;100023.81;;;19.75;57.10
50682;BME280;36779;52.168;20.878;2023-08-08T09:35:04;100028.63;;;20.07;56.84
50682;BME280;36779;52.168;20.878;2023-08-08T09:37:37;100032.80;;;20.20;56.50
50682;BME280;36779;52.168;20.878;2023-08-08T09:40:06;100030.68;;;20.41;56.71
50682;BME280;36779;52.168;20.878;2023-08-08T09:42:37;100034.98;;;20.61;56.41
50682;BME280;36779;52.168;20.878;2023-08-08T09:45:07;100036.41;;;20.67;56.06
50682;BME280;36779;52.168;20.878;2023-08-08T09:47:36;100041.65;;;20.65;55.88
50682;BME280;36779;52.168;20.878;2023-08-08T09:50:07;100040.44;;;20.58;55.57
50682;BME280;36779;52.168;20.878;2023-08-08T09:52:36;100037.89;;;20.54;55.72
50682;BME280;36779;52.168;20.878;2023-08-08T09:55:06;100033.36;;;20.74;56.04
50682;BME280;36779;52.168;20.878;2023-08-08T09:57:37;100028.14;;;21.04;55.90
50682;BME280;36779;52.168;20.878;2023-08-08T10:00:07;100034.40;;;21.08;55.34
50682;BME280;36779;52.168;20.878;2023-08-08T10:02:43;100027.55;;;21.12;55.57
50682;BME280;36779;52.168;20.878;2023-08-08T10:05:12;100031.54;;;21.46;55.78
50682;BME280;36779;52.168;20.878;2023-08-08T10:07:41;100034.13;;;21.72;55.43
50682;BME280;36779;52.168;20.878;2023-08-08T10:10:09;100027.51;;;21.71;54.67
50682;BME280;36779;52.168;20.878;2023-08-08T10:12:37;100032.45;;;21.48;54.35
50682;BME280;36779;52.168;20.878;2023-08-08T10:15:07;100032.48;;;21.23;54.01
50682;BME280;36779;52.168;20.878;2023-08-08T10:17:36;100035.50;;;20.95;54.00
50682;BME280;36779;52.168;20.878;2023-08-08T10:20:05;100041.91;;;20.78;54.13
50682;BME280;36779;52.168;20.878;2023-08-08T10:22:38;100036.59;;;20.75;54.21
50682;BME280;36779;52.168;20.878;2023-08-08T10:25:16;100037.55;;;20.80;54.29
50682;BME280;36779;52.168;20.878;2023-08-08T10:27:45;100030.68;;;20.88;54.21
50682;BME280;36779;52.168;20.878;2023-08-08T10:30:13;100029.09;;;21.00;54.28
50682;BME280;36779;52.168;20.878;2023-08-08T10:32:42;100028.65;;;21.29;54.30
50682;BME280;36779;52.168;20.878;2023-08-08T10:35:14;100024.77;;;21.60;54.29
50682;BME280;36779;52.168;20.878;2023-08-08T10:37:51;100029.55;;;21.80;54.00
50682;BME280;36779;52.168;20.878;2023-08-08T10:40:19;100033.83;;;21.73;53.29
50682;BME280;36779;52.168;20.878;2023-08-08T10:42:46;100037.67;;;21.57;53.12
50682;BME280;36779;52.168;20.878;2023-08-08T10:45:16;100040.23;;;21.35;52.79
50682;BME280;36779;52.168;20.878;2023-08-08T10:47:45;100041.45;;;21.06;52.64
50682;BME280;36779;52.168;20.878;2023-08-08T10:50:13;100043.27;;;20.81;52.72
50682;BME280;36779;52.168;20.878;2023-08-08T10:52:51;100045.55;;;20.79;53.03
50682;BME280;36779;52.168;20.878;2023-08-08T10:55:20;100043.36;;;20.85;52.98
50682;BME280;36779;52.168;20.878;2023-08-08T10:57:57;100041.98;;;20.85;52.75
50682;BME280;36779;52.168;20.878;2023-08-08T11:00:27;100036.89;;;20.77;52.54
50682;BME280;36779;52.168;20.878;2023-08-08T11:02:55;100039.95;;;20.68;52.53
50682;BME280;36779;52.168;20.878;2023-08-08T11:05:23;100042.69;;;20.53;52.41
50682;BME280;36779;52.168;20.878;2023-08-08T11:07:51;100039.86;;;20.44;52.56
50682;BME280;36779;52.168;20.878;2023-08-08T11:10:21;100041.88;;;20.49;52.63
50682;BME280;36779;52.168;20.878;2023-08-08T11:12:54;100042.17;;;20.71;53.03
50682;BME280;36779;52.168;20.878;2023-08-08T11:15:23;100038.77;;;20.91;52.77
50682;BME280;36779;52.168;20.878;2023-08-08T11:17:50;100042.06;;;21.06;52.73
50682;BME280;36779;52.168;20.878;2023-08-08T11:20:20;100043.11;;;21.10;52.44
50682;BME280;36779;52.168;20.878;2023-08-08T11:22:51;100044.71;;;21.34;52.84
50682;BME280;36779;52.168;20.878;2023-08-08T11:25:20;100040.55;;;21.81;53.09
50682;BME280;36779;52.168;20.878;2023-08-08T11:27:51;100044.57;;;22.22;52.79
50682;BME280;36779;52.168;20.878;2023-08-08T11:30:19;100053.31;;;22.35;52.25
50682;BME280;36779;52.168;20.878;2023-08-08T11:32:48;100053.16;;;22.29;51.75
50682;BME280;36779;52.168;20.878;2023-08-08T11:35:37;100049.98;;;22.15;51.62
50682;BME280;36779;52.168;20.878;2023-08-08T11:38:10;100051.29;;;22.09;51.53
50682;BME280;36779;52.168;20.878;2023-08-08T11:40:38;100050.26;;;21.97;51.25
50682;BME280;36779;52.168;20.878;2023-08-08T11:43:06;100052.24;;;21.83;51.26
50682;BME280;36779;52.168;20.878;2023-08-08T11:45:34;100052.21;;;21.82;51.27
50682;BME280;36779;52.168;20.878;2023-08-08T11:48:02;100051.16;;;21.86;51.36
50682;BME280;36779;52.168;20.878;2023-08-08T11:50:30;100048.30;;;22.00;51.28
50682;BME280;36779;52.168;20.878;2023-08-08T11:52:58;100053.65;;;21.89;50.85
50682;BME280;36779;52.168;20.878;2023-08-08T11:55:29;100055.16;;;21.67;50.67
50682;BME280;36779;52.168;20.878;2023-08-08T11:57:57;100053.95;;;21.52;50.68
50682;BME280;36779;52.168;20.878;2023-08-08T12:00:27;100055.64;;;21.47;50.87
50682;BME280;36779;52.168;20.878;2023-08-08T12:02:55;100057.25;;;21.60;51.03
50682;BME280;36779;52.168;20.878;2023-08-08T12:05:25;100057.64;;;21.77;50.99
50682;BME280;36779;52.168;20.878;2023-08-08T12:07:52;100056.15;;;21.73;50.60
50682;BME280;36779;52.168;20.878;2023-08-08T12:10:21;100057.76;;;21.58;50.36
50682;BME280;36779;52.168;20.878;2023-08-08T12:12:52;100057.60;;;21.45;50.20
50682;BME280;36779;52.168;20.878;2023-08-08T12:15:21;100047.64;;;21.50;50.66
50682;BME280;36779;52.168;20.878;2023-08-08T12:17:50;100053.95;;;21.76;50.68
50682;BME280;36779;52.168;20.878;2023-08-08T12:20:18;100060.45;;;21.99;50.65
50682;BME280;36779;52.168;20.878;2023-08-08T12:22:46;100063.18;;;22.13;50.39
50682;BME280;36779;52.168;20.878;2023-08-08T12:25:15;100066.35;;;22.04;49.78
50682;BME280;36779;52.168;20.878;2023-08-08T12:27:43;100062.79;;;21.84;49.58
50682;BME280;36779;52.168;20.878;2023-08-08T12:30:11;100066.55;;;21.72;49.73
50682;BME280;36779;52.168;20.878;2023-08-08T12:32:40;100064.95;;;21.80;50.05
50682;BME280;36779;52.168;20.878;2023-08-08T12:35:09;100059.91;;;21.96;49.88
50682;BME280;36779;52.168;20.878;2023-08-08T12:37:37;100059.86;;;22.06;49.77
50682;BME280;36779;52.168;20.878;2023-08-08T12:40:07;100063.29;;;22.09;49.70
50682;BME280;36779;52.168;20.878;2023-08-08T12:42:37;100059.58;;;22.05;49.44
50682;BME280;36779;52.168;20.878;2023-08-08T12:45:06;100056.84;;;22.04;49.38
50682;BME280;36779;52.168;20.878;2023-08-08T12:47:35;100062.10;;;22.13;49.59
50682;BME280;36779;52.168;20.878;2023-08-08T12:50:04;100064.22;;;22.31;49.67
50682;BME280;36779;52.168;20.878;2023-08-08T12:52:33;100062.86;;;22.45;49.59
50682;BME280;36779;52.168;20.878;2023-08-08T12:55:01;100063.98;;;22.55;49.34